Time;durP1;ratioP1;P1;durP2;ratioP2;P2;SDS_P1;SDS_P2;PMS_P1;PMS_P2;Temp;Humidity;BMP_temperature;BMP_pressure;BME280_temperature;BME280_humidity;BME280_pressure;Samples;Min_cycle;Max_cycle;Signal;HPM_P1;HPM_P2
2022/11/25 00:02:18;;;;;;;9.35;2.42;;;12.40;99.90;;;;;;5068330;28;20193;-64
2022/11/25 00:04:44;;;;;;;9.48;3.83;;;12.40;99.90;;;;;;5063154;28;20194;-63
2022/11/25 00:07:10;;;;;;;10.27;2.33;;;12.50;99.90;;;;;;5073949;28;20178;-64
2022/11/25 00:09:35;;;;;;;6.25;3.38;;;12.50;99.90;;;;;;5059612;28;20177;-63
2022/11/25 00:12:01;;;;;;;5.60;2.60;;;12.50;99.90;;;;;;5064639;28;20243;-63
2022/11/25 00:14:27;;;;;;;7.90;2.75;;;12.50;99.90;;;;;;5070405;28;20209;-63
2022/11/25 00:16:52;;;;;;;7.85;2.28;;;12.60;99.90;;;;;;5063832;28;20181;-63
2022/11/25 00:19:18;;;;;;;9.68;2.03;;;12.60;99.90;;;;;;5070629;28;20642;-63
2022/11/25 00:21:44;;;;;;;12.02;2.42;;;12.50;99.90;;;;;;5066519;28;20177;-63
2022/11/25 00:24:13;;;;;;;4.70;2.00;;;12.50;99.90;;;;;;5069343;28;20264;-63
2022/11/25 00:26:39;;;;;;;7.43;3.05;;;12.40;99.90;;;;;;5068823;28;20223;-63
2022/11/25 00:29:07;;;;;;;14.95;2.90;;;12.30;99.90;;;;;;5054786;28;20562;-63
2022/11/25 00:31:34;;;;;;;9.00;2.17;;;12.20;99.90;;;;;;5064757;28;20265;-63
2022/11/25 00:34:00;;;;;;;7.28;3.08;;;12.00;99.90;;;;;;5054286;28;20525;-63
2022/11/25 00:36:31;;;;;;;7.47;2.85;;;11.90;99.90;;;;;;5057265;28;20243;-64
2022/11/25 00:38:59;;;;;;;2.97;1.65;;;12.00;99.90;;;;;;5059975;28;20228;-62
2022/11/25 00:46:55;;;;;;;5.70;1.65;;;11.90;99.90;;;;;;5066256;28;20188;-62
2022/11/25 00:49:21;;;;;;;2.90;1.13;;;11.70;99.90;;;;;;5067690;28;20609;-62
2022/11/25 00:51:46;;;;;;;2.05;1.85;;;11.50;99.90;;;;;;5072035;28;20189;-63
2022/11/25 00:54:12;;;;;;;3.50;1.27;;;11.30;99.90;;;;;;5057804;28;20258;-62
2022/11/25 00:56:38;;;;;;;6.75;0.90;;;11.20;99.90;;;;;;5063731;28;20189;-62
2022/11/25 00:59:04;;;;;;;0.77;0.75;;;11.10;99.90;;;;;;5065435;28;20186;-62
2022/11/25 01:01:30;;;;;;;0.70;0.70;;;11.00;99.90;;;;;;5064521;28;20170;-62
2022/11/25 01:03:55;;;;;;;3.67;0.68;;;11.00;99.90;;;;;;5066136;28;20264;-62
2022/11/25 01:06:21;;;;;;;3.22;0.70;;;11.10;99.90;;;;;;5061469;28;20639;-62
2022/11/25 01:08:47;;;;;;;0.63;0.63;;;11.10;99.90;;;;;;5062340;28;20194;-62
2022/11/25 01:11:20;;;;;;;2.28;1.08;;;11.10;99.90;;;;;;5056987;28;20177;-62
2022/11/25 01:13:46;;;;;;;3.00;0.70;;;11.00;99.90;;;;;;5066099;28;20204;-63
2022/11/25 01:16:14;;;;;;;1.10;0.57;;;10.90;99.90;;;;;;5060165;28;20228;-62
2022/11/25 01:18:40;;;;;;;3.40;1.25;;;10.90;99.90;;;;;;5072259;28;20185;-62
2022/11/25 01:21:11;;;;;;;3.92;0.77;;;10.90;99.90;;;;;;5060341;28;20170;-62
2022/11/25 01:23:37;;;;;;;1.02;0.85;;;10.80;99.90;;;;;;5063467;28;20209;-62
2022/11/25 01:26:09;;;;;;;0.98;0.80;;;10.80;99.90;;;;;;5088831;28;20189;-62
2022/11/25 01:28:34;;;;;;;0.55;0.50;;;10.70;99.90;;;;;;5069084;28;20650;-62
2022/11/25 01:31:03;;;;;;;2.50;0.60;;;10.70;99.90;;;;;;5071033;28;20199;-62
2022/11/25 01:33:31;;;;;;;3.22;0.88;;;10.60;99.90;;;;;;5069578;28;20177;-62
2022/11/25 01:36:09;;;;;;;1.88;0.60;;;10.70;99.90;;;;;;5061148;28;20206;-62
2022/11/25 01:38:35;;;;;;;3.85;1.00;;;10.60;99.90;;;;;;5052266;28;20185;-62
2022/11/25 01:41:02;;;;;;;0.98;0.77;;;10.60;99.90;;;;;;5059623;28;20630;-62
2022/11/25 01:43:28;;;;;;;3.80;1.00;;;10.80;99.90;;;;;;5071236;28;20293;-62
2022/11/25 01:46:08;;;;;;;0.73;0.60;;;10.90;99.90;;;;;;5058643;28;20243;-62
2022/11/25 01:48:46;;;;;;;2.77;0.70;;;10.90;99.90;;;;;;5069133;28;20196;-62
2022/11/25 01:51:22;;;;;;;2.80;0.87;;;10.70;99.90;;;;;;5051696;28;20279;-62
2022/11/25 01:53:49;;;;;;;3.10;1.10;;;10.70;99.90;;;;;;5066846;28;20173;-61
2022/11/25 01:56:15;;;;;;;2.63;0.97;;;10.60;99.90;;;;;;5085525;28;20218;-61
2022/11/25 01:58:42;;;;;;;1.63;1.00;;;10.40;99.90;;;;;;5069378;28;20189;-60
2022/11/25 02:01:08;;;;;;;1.53;1.07;;;10.40;99.90;;;;;;5055932;28;20264;-61
2022/11/25 02:03:41;;;;;;;1.70;0.90;;;10.40;99.90;;;;;;5063508;28;20269;-61
2022/11/25 02:06:27;;;;;;;3.53;0.70;;;10.30;99.90;;;;;;5071847;28;20181;-62
2022/11/25 02:08:59;;;;;;;2.67;0.87;;;10.30;99.90;;;;;;5052234;28;20536;-62
2022/11/25 02:11:29;;;;;;;2.70;1.03;;;10.30;99.90;;;;;;5087006;28;20182;-62
2022/11/25 02:13:55;;;;;;;0.57;0.57;;;10.30;99.90;;;;;;5056953;28;20242;-62
2022/11/25 02:16:21;;;;;;;0.95;0.88;;;10.40;99.90;;;;;;5071461;28;20197;-62
2022/11/25 02:18:49;;;;;;;2.08;0.50;;;10.50;99.90;;;;;;5059438;28;20194;-62
2022/11/25 02:21:20;;;;;;;0.70;0.70;;;10.70;99.90;;;;;;5064053;28;20458;-61
2022/11/25 02:24:07;;;;;;;0.93;0.70;;;10.70;99.90;;;;;;5062814;28;20268;-62
2022/11/25 02:26:33;;;;;;;1.00;0.60;;;10.60;99.90;;;;;;5063138;28;20177;-62
2022/11/25 02:28:58;;;;;;;1.80;0.50;;;10.60;99.90;;;;;;5071251;28;20193;-62
2022/11/25 02:31:24;;;;;;;0.85;0.75;;;10.60;99.90;;;;;;5098508;28;20553;-61
2022/11/25 02:33:50;;;;;;;1.88;0.82;;;10.70;99.90;;;;;;5058346;28;20198;-61
2022/11/25 02:36:19;;;;;;;1.37;0.73;;;10.90;99.90;;;;;;5063962;28;20213;-61
2022/11/25 02:38:48;;;;;;;0.73;0.73;;;10.90;99.90;;;;;;5058998;28;20181;-62
2022/11/25 02:41:25;;;;;;;2.57;0.67;;;10.80;99.90;;;;;;5070954;28;20217;-61
2022/11/25 02:43:51;;;;;;;0.50;0.50;;;10.80;99.90;;;;;;5066093;28;20182;-62
2022/11/25 02:46:19;;;;;;;3.80;0.70;;;10.70;99.90;;;;;;5051775;28;20193;-61
2022/11/25 02:48:45;;;;;;;0.50;0.50;;;10.60;99.90;;;;;;5052701;28;20646;-61
2022/11/25 02:51:15;;;;;;;1.43;0.80;;;10.40;99.90;;;;;;5051973;28;20316;-61
2022/11/25 02:53:41;;;;;;;2.47;0.87;;;10.50;99.90;;;;;;5052115;28;20182;-61
2022/11/25 02:56:09;;;;;;;3.63;1.07;;;10.50;99.90;;;;;;5057406;28;20205;-61
2022/11/25 02:58:35;;;;;;;1.53;0.70;;;10.50;99.90;;;;;;5067456;28;20182;-62
2022/11/25 03:01:01;;;;;;;0.70;0.70;;;10.40;99.90;;;;;;5063563;28;20189;-62
2022/11/25 03:03:26;;;;;;;0.53;0.50;;;10.40;99.90;;;;;;5056634;28;20185;-63
2022/11/25 03:05:52;;;;;;;4.43;0.90;;;10.60;99.90;;;;;;5059652;28;20269;-62
2022/11/25 03:08:18;;;;;;;2.97;1.10;;;10.60;99.90;;;;;;5051990;28;20227;-62
2022/11/25 03:10:43;;;;;;;1.80;0.87;;;10.50;99.90;;;;;;5051370;28;20624;-62
2022/11/25 03:13:09;;;;;;;1.60;0.87;;;10.40;99.90;;;;;;5051063;28;20201;-61
2022/11/25 03:15:35;;;;;;;2.93;1.10;;;10.30;99.90;;;;;;5060802;28;20209;-61
2022/11/25 03:18:03;;;;;;;7.30;1.33;;;10.20;99.90;;;;;;5068243;28;20560;-61
2022/11/25 03:20:28;;;;;;;2.87;1.10;;;10.20;99.90;;;;;;5065367;28;20642;-61
2022/11/25 03:22:54;;;;;;;2.83;1.07;;;10.20;99.90;;;;;;5062770;28;20193;-61
2022/11/25 03:25:20;;;;;;;3.93;0.93;;;10.20;99.90;;;;;;5069470;28;20274;-62
2022/11/25 03:27:46;;;;;;;1.27;1.10;;;10.10;99.90;;;;;;5067924;28;20624;-61
2022/11/25 03:30:21;;;;;;;3.40;1.30;;;10.10;99.90;;;;;;5057674;28;20181;-61
2022/11/25 03:32:47;;;;;;;5.00;1.33;;;10.10;99.90;;;;;;5072318;28;20226;-61
2022/11/25 03:35:13;;;;;;;1.17;1.03;;;10.10;99.90;;;;;;5062678;28;20258;-62
2022/11/25 03:37:39;;;;;;;2.13;1.53;;;10.00;99.90;;;;;;5062713;28;20192;-61
2022/11/25 03:40:07;;;;;;;4.23;1.63;;;10.00;99.90;;;;;;5059813;28;20328;-62
2022/11/25 03:42:33;;;;;;;3.73;1.63;;;10.00;99.90;;;;;;5056573;28;20209;-61
2022/11/25 03:44:59;;;;;;;6.57;1.67;;;10.00;99.90;;;;;;5070485;28;20270;-62
2022/11/25 03:47:25;;;;;;;2.37;1.70;;;10.00;99.90;;;;;;5058183;28;20287;-62
2022/11/25 03:49:50;;;;;;;4.10;1.67;;;10.00;99.90;;;;;;5055203;28;20300;-63
2022/11/25 03:52:16;;;;;;;4.93;1.83;;;10.20;99.90;;;;;;5060045;28;20593;-62
2022/11/25 03:54:42;;;;;;;3.83;2.27;;;10.20;99.90;;;;;;5058540;28;20201;-62
2022/11/25 03:57:07;;;;;;;4.27;3.17;;;10.30;99.90;;;;;;5053998;28;20666;-63
2022/11/25 03:59:33;;;;;;;3.90;1.40;;;10.30;99.90;;;;;;5061925;28;20185;-62
2022/11/25 04:01:59;;;;;;;2.40;1.60;;;10.20;99.90;;;;;;5060062;28;20194;-62
2022/11/25 04:04:24;;;;;;;8.00;2.47;;;10.20;99.90;;;;;;5060237;28;20194;-62
2022/11/25 04:06:50;;;;;;;2.83;2.37;;;10.20;99.90;;;;;;5065462;28;20197;-63
2022/11/25 04:09:16;;;;;;;4.23;2.10;;;10.20;99.90;;;;;;5070353;28;20184;-61
2022/11/25 04:14:26;;;;;;;9.70;2.60;;;10.00;99.90;;;;;;5063250;28;20229;-61
2022/11/25 04:16:53;;;;;;;5.83;1.93;;;10.00;99.90;;;;;;5061130;28;20663;-61
2022/11/25 04:19:18;;;;;;;6.33;1.87;;;10.00;99.90;;;;;;5063864;28;20242;-61
2022/11/25 04:21:44;;;;;;;3.10;2.20;;;9.90;99.90;;;;;;5054723;28;20239;-62
2022/11/25 04:24:09;;;;;;;7.43;2.30;;;9.80;99.90;;;;;;5056271;28;20182;-60
2022/11/25 04:26:35;;;;;;;2.70;1.67;;;9.90;99.90;;;;;;5044734;28;20212;-62
2022/11/25 04:29:01;;;;;;;5.77;3.67;;;10.00;99.90;;;;;;5061911;28;20224;-62
2022/11/25 04:31:26;;;;;;;6.13;1.60;;;10.00;99.90;;;;;;5095701;28;20272;-62
2022/11/25 04:33:52;;;;;;;4.17;1.97;;;10.10;99.90;;;;;;5056272;28;20209;-62
2022/11/25 04:36:18;;;;;;;1.73;1.63;;;10.10;99.90;;;;;;5065126;28;20248;-62
2022/11/25 04:38:43;;;;;;;3.47;1.77;;;10.20;99.90;;;;;;5058576;28;20186;-62
2022/11/25 04:41:09;;;;;;;5.27;3.27;;;10.20;99.90;;;;;;5054453;28;20268;-62
2022/11/25 04:43:35;;;;;;;2.37;1.63;;;10.00;99.90;;;;;;5067908;28;20193;-62
2022/11/25 04:46:01;;;;;;;6.90;2.20;;;10.00;99.90;;;;;;5062873;28;20190;-62
2022/11/25 04:48:27;;;;;;;4.03;1.80;;;10.00;99.90;;;;;;5054669;28;20182;-62
2022/11/25 04:50:53;;;;;;;10.97;2.67;;;10.10;99.90;;;;;;5089477;28;20185;-62
2022/11/25 04:53:19;;;;;;;5.50;1.73;;;10.00;99.90;;;;;;5064366;28;20182;-63
2022/11/25 04:55:46;;;;;;;6.43;2.20;;;10.00;99.90;;;;;;5054893;28;20697;-62
2022/11/25 04:58:12;;;;;;;6.70;1.70;;;10.10;99.90;;;;;;5066478;28;20257;-62
2022/11/25 05:00:37;;;;;;;3.37;1.73;;;10.10;99.90;;;;;;5057607;28;20325;-62
2022/11/25 05:03:03;;;;;;;10.23;2.30;;;10.10;99.90;;;;;;5066630;28;20543;-62
2022/11/25 05:05:29;;;;;;;1.80;1.70;;;10.10;99.90;;;;;;5081239;28;20192;-62
2022/11/25 05:07:55;;;;;;;5.30;3.00;;;10.00;99.90;;;;;;5051217;28;20263;-62
2022/11/25 05:10:21;;;;;;;6.83;2.13;;;10.10;99.90;;;;;;5054034;28;20277;-62
2022/11/25 05:12:47;;;;;;;3.73;2.10;;;10.20;99.90;;;;;;5052919;28;20292;-62
2022/11/25 05:15:13;;;;;;;2.57;1.53;;;10.20;99.90;;;;;;5060443;28;20286;-61
2022/11/25 05:17:39;;;;;;;3.60;1.50;;;10.20;99.90;;;;;;5052085;28;20618;-62
2022/11/25 05:20:06;;;;;;;3.40;1.63;;;10.10;99.90;;;;;;5063894;28;20623;-62
2022/11/25 05:22:33;;;;;;;5.53;2.10;;;10.00;99.90;;;;;;5064336;28;20183;-62
2022/11/25 05:24:59;;;;;;;6.97;2.00;;;9.90;99.90;;;;;;5053205;28;20615;-62
2022/11/25 05:27:26;;;;;;;5.80;2.27;;;9.90;99.90;;;;;;5052412;28;20205;-62
2022/11/25 05:29:51;;;;;;;4.80;2.93;;;9.90;99.90;;;;;;5053870;28;20219;-62
2022/11/25 05:32:17;;;;;;;4.33;1.60;;;9.90;99.90;;;;;;5052914;28;20559;-62
2022/11/25 05:34:43;;;;;;;3.07;1.60;;;9.90;99.90;;;;;;5064059;28;20617;-62
2022/11/25 05:37:12;;;;;;;5.20;2.30;;;9.80;99.90;;;;;;5067646;28;20189;-62
2022/11/25 05:39:38;;;;;;;4.57;1.43;;;9.70;99.90;;;;;;5061003;28;20200;-63
2022/11/25 05:42:03;;;;;;;3.97;1.97;;;9.70;99.90;;;;;;5053338;28;20220;-62
2022/11/25 05:44:29;;;;;;;5.03;2.17;;;9.80;99.90;;;;;;5062450;28;20214;-62
2022/11/25 05:46:55;;;;;;;9.73;2.77;;;9.70;99.90;;;;;;5061969;28;20204;-62
2022/11/25 05:49:20;;;;;;;3.97;1.73;;;9.60;99.90;;;;;;5053655;28;20208;-62
2022/11/25 05:51:47;;;;;;;5.00;1.90;;;9.60;99.90;;;;;;5071634;28;20185;-62
2022/11/25 05:54:13;;;;;;;6.10;2.10;;;9.60;99.90;;;;;;5055741;28;20192;-62
2022/11/25 05:56:39;;;;;;;2.87;1.60;;;9.50;99.90;;;;;;5059542;28;20182;-62
2022/11/25 05:59:05;;;;;;;4.43;1.50;;;9.50;99.90;;;;;;5057448;28;20635;-62
2022/11/25 06:01:32;;;;;;;4.20;2.20;;;9.50;99.90;;;;;;5053800;28;20189;-62
2022/11/25 06:04:02;;;;;;;7.43;1.73;;;9.50;99.90;;;;;;5052797;28;20670;-63
2022/11/25 06:06:28;;;;;;;5.17;1.93;;;9.40;99.90;;;;;;5066119;28;20197;-62
2022/11/25 06:08:54;;;;;;;4.80;2.37;;;9.30;99.90;;;;;;5061856;28;20658;-61
2022/11/25 06:11:19;;;;;;;4.30;2.37;;;9.40;99.90;;;;;;5098639;28;20253;-61
2022/11/25 06:13:45;;;;;;;8.33;2.17;;;9.40;99.90;;;;;;5060576;28;20270;-62
2022/11/25 06:16:17;;;;;;;4.57;1.73;;;9.40;99.90;;;;;;5070194;28;20209;-62
2022/11/25 06:18:43;;;;;;;9.43;2.47;;;9.40;99.90;;;;;;5061223;28;20256;-62
2022/11/25 06:21:09;;;;;;;2.93;2.20;;;9.30;99.90;;;;;;5056727;28;20746;-63
2022/11/25 06:23:36;;;;;;;1.90;1.80;;;9.30;99.90;;;;;;5061627;28;20202;-63
2022/11/25 06:26:07;;;;;;;4.83;2.53;;;9.40;99.90;;;;;;5060968;28;20197;-63
2022/11/25 06:28:33;;;;;;;4.30;2.47;;;9.60;99.90;;;;;;5083810;28;20509;-62
2022/11/25 06:31:06;;;;;;;1.83;1.40;;;9.60;99.90;;;;;;5052383;28;20235;-63
2022/11/25 06:33:32;;;;;;;8.93;1.93;;;9.40;99.90;;;;;;5062639;28;20232;-63
2022/11/25 06:35:58;;;;;;;10.53;3.10;;;9.30;99.90;;;;;;5070891;28;20658;-63
2022/11/25 06:38:24;;;;;;;2.50;1.50;;;9.30;99.90;;;;;;5059938;28;20201;-62
2022/11/25 06:40:49;;;;;;;8.97;3.53;;;9.40;99.90;;;;;;5069755;28;20572;-63
2022/11/25 06:43:15;;;;;;;4.57;2.10;;;9.40;99.90;;;;;;5058641;28;20631;-62
2022/11/25 06:45:41;;;;;;;3.40;2.40;;;9.40;99.90;;;;;;5061876;28;20194;-63
2022/11/25 06:48:06;;;;;;;2.10;1.80;;;9.40;99.90;;;;;;5063005;28;20594;-63
2022/11/25 06:50:32;;;;;;;5.70;2.43;;;9.50;99.90;;;;;;5054391;28;20190;-63
2022/11/25 06:53:00;;;;;;;8.23;2.20;;;9.40;99.90;;;;;;5066300;28;20185;-62
2022/11/25 06:55:25;;;;;;;3.47;1.80;;;9.30;99.90;;;;;;5047084;28;20205;-62
2022/11/25 06:57:51;;;;;;;5.27;2.33;;;9.40;99.90;;;;;;5056224;28;20193;-62
2022/11/25 07:00:17;;;;;;;5.07;1.90;;;9.30;99.90;;;;;;5056560;28;20272;-62
2022/11/25 07:02:43;;;;;;;7.33;2.73;;;9.20;99.90;;;;;;5071829;28;20254;-62
2022/11/25 07:05:09;;;;;;;3.70;1.87;;;9.10;99.90;;;;;;5071445;28;20181;-63
2022/11/25 07:07:35;;;;;;;6.37;2.50;;;9.20;99.90;;;;;;5075062;28;20188;-62
2022/11/25 07:10:00;;;;;;;6.30;2.10;;;9.10;99.90;;;;;;5066069;28;20188;-62
2022/11/25 07:12:26;;;;;;;2.87;2.00;;;9.10;99.90;;;;;;5057433;28;20193;-62
2022/11/25 07:14:52;;;;;;;9.37;3.63;;;9.10;99.90;;;;;;5061745;28;20212;-62
2022/11/25 07:17:17;;;;;;;8.67;3.17;;;9.30;99.90;;;;;;5058938;28;20256;-63
2022/11/25 07:19:44;;;;;;;4.23;2.40;;;9.30;99.90;;;;;;5064558;28;20186;-63
2022/11/25 07:22:10;;;;;;;3.67;2.27;;;9.30;99.90;;;;;;5070494;28;20186;-63
2022/11/25 07:24:35;;;;;;;3.10;2.70;;;9.30;99.90;;;;;;5074132;28;20276;-63
2022/11/25 07:27:04;;;;;;;3.83;3.37;;;9.40;99.90;;;;;;5065816;28;20264;-63
2022/11/25 07:29:30;;;;;;;6.53;1.93;;;9.30;99.90;;;;;;5064848;28;20658;-61
2022/11/25 07:31:56;;;;;;;2.77;2.13;;;9.30;99.90;;;;;;5064049;28;20185;-62
2022/11/25 07:34:22;;;;;;;4.43;2.17;;;9.30;99.90;;;;;;5064101;28;20726;-62
2022/11/25 07:36:49;;;;;;;9.17;2.67;;;9.30;99.90;;;;;;5083407;28;20193;-62
2022/11/25 07:39:17;;;;;;;5.67;2.50;;;9.30;99.90;;;;;;5058226;28;20542;-62
2022/11/25 07:41:45;;;;;;;3.10;2.33;;;9.30;99.90;;;;;;5064809;28;20173;-62
2022/11/25 07:44:13;;;;;;;6.43;3.73;;;9.40;99.90;;;;;;5061366;28;20581;-62
2022/11/25 07:46:44;;;;;;;11.83;4.50;;;9.40;99.90;;;;;;5073637;28;20185;-62
2022/11/25 07:49:11;;;;;;;8.03;2.93;;;9.20;99.90;;;;;;5066294;28;20177;-62
2022/11/25 07:51:40;;;;;;;4.77;2.53;;;9.20;99.90;;;;;;5068282;28;20188;-61
2022/11/25 07:54:07;;;;;;;5.77;2.37;;;9.10;99.90;;;;;;5059585;28;20201;-62
2022/11/25 07:56:37;;;;;;;5.80;3.40;;;9.10;99.90;;;;;;5055447;28;20567;-62
2022/11/25 07:59:04;;;;;;;8.50;3.33;;;9.10;99.90;;;;;;5054994;28;20186;-63
2022/11/25 08:01:30;;;;;;;5.77;2.23;;;9.10;99.90;;;;;;5072775;28;20272;-63
2022/11/25 08:03:56;;;;;;;4.83;2.90;;;9.20;99.90;;;;;;5061849;28;20677;-64
2022/11/25 08:06:28;;;;;;;4.40;2.17;;;9.10;99.90;;;;;;5055235;28;20655;-62
2022/11/25 08:08:56;;;;;;;3.40;2.63;;;9.10;99.90;;;;;;5061190;28;20177;-62
2022/11/25 08:11:32;;;;;;;5.90;2.83;;;9.20;99.90;;;;;;5064161;28;20252;-62
2022/11/25 08:13:58;;;;;;;12.17;2.70;;;9.40;99.90;;;;;;5065032;28;20208;-63
2022/11/25 08:16:32;;;;;;;11.77;2.50;;;9.50;99.90;;;;;;5067822;28;20673;-64
2022/11/25 08:18:59;;;;;;;7.17;3.17;;;9.40;99.90;;;;;;5055249;28;20182;-63
2022/11/25 08:21:26;;;;;;;12.20;2.70;;;9.50;99.90;;;;;;5057682;28;20190;-63
2022/11/25 08:23:52;;;;;;;7.20;2.50;;;9.50;99.90;;;;;;5061745;28;20181;-63
2022/11/25 08:26:30;;;;;;;3.30;2.40;;;9.60;99.90;;;;;;5068646;28;20189;-64
2022/11/25 08:28:57;;;;;;;10.00;2.97;;;9.50;99.90;;;;;;5058654;28;20181;-64
2022/11/25 08:31:31;;;;;;;11.10;3.57;;;9.50;99.90;;;;;;5066558;28;20256;-69
2022/11/25 08:33:58;;;;;;;7.93;3.20;;;9.60;99.90;;;;;;5060801;28;20560;-63
2022/11/25 08:36:25;;;;;;;5.47;2.83;;;9.70;99.90;;;;;;5073680;28;20220;-63
2022/11/25 08:38:53;;;;;;;3.70;2.70;;;10.00;99.90;;;;;;5055725;28;20205;-63
2022/11/25 08:41:27;;;;;;;7.77;3.00;;;10.00;99.90;;;;;;5065920;28;20202;-63
2022/11/25 08:43:54;;;;;;;6.83;4.03;;;10.00;99.90;;;;;;5056243;28;20190;-64
2022/11/25 08:46:23;;;;;;;7.90;3.60;;;10.10;99.90;;;;;;5059558;28;20185;-64
2022/11/25 08:48:49;;;;;;;9.97;4.00;;;10.10;99.90;;;;;;5065280;28;20209;-64
2022/11/25 08:51:21;;;;;;;9.13;4.13;;;10.00;99.90;;;;;;5068835;28;20671;-66
2022/11/25 08:53:50;;;;;;;11.03;5.23;;;9.90;99.90;;;;;;5052028;28;20638;-65
2022/11/25 08:56:17;;;;;;;7.50;4.53;;;9.70;99.90;;;;;;5061859;28;20284;-65
2022/11/25 08:58:42;;;;;;;10.13;4.07;;;9.80;99.90;;;;;;5073903;28;20257;-64
2022/11/25 09:01:09;;;;;;;6.77;4.97;;;9.90;99.90;;;;;;5064845;28;20646;-65
2022/11/25 09:03:37;;;;;;;8.93;4.73;;;9.90;99.90;;;;;;5055218;28;20174;-65
2022/11/25 09:06:05;;;;;;;5.93;3.57;;;10.00;99.90;;;;;;5050496;28;20186;-65
2022/11/25 09:08:31;;;;;;;7.23;3.43;;;10.00;99.90;;;;;;5071856;28;20183;-65
2022/11/25 09:10:58;;;;;;;9.20;4.30;;;10.00;99.90;;;;;;5072942;28;20340;-65
2022/11/25 09:13:24;;;;;;;7.20;4.70;;;10.00;99.90;;;;;;5060068;28;20198;-66
2022/11/25 09:15:49;;;;;;;3.70;2.90;;;10.00;99.90;;;;;;5066385;28;20201;-65
2022/11/25 09:18:18;;;;;;;6.63;2.70;;;9.90;99.90;;;;;;5065839;28;20264;-65
2022/11/25 09:20:43;;;;;;;6.97;3.00;;;9.80;99.90;;;;;;5061757;28;20268;-66
2022/11/25 09:23:09;;;;;;;8.17;3.00;;;9.70;99.90;;;;;;5066439;28;20272;-65
2022/11/25 09:25:35;;;;;;;6.23;2.73;;;9.70;99.90;;;;;;5065305;28;20785;-66
2022/11/25 09:28:02;;;;;;;4.57;3.23;;;9.70;99.90;;;;;;5061467;28;20192;-65
2022/11/25 09:30:28;;;;;;;7.20;3.00;;;9.80;99.90;;;;;;5067668;28;20180;-65
2022/11/25 09:32:55;;;;;;;4.53;2.53;;;9.90;99.90;;;;;;5056808;28;20611;-64
2022/11/25 09:35:22;;;;;;;4.43;2.63;;;10.00;99.90;;;;;;5068518;28;20208;-64
2022/11/25 09:37:47;;;;;;;3.73;2.27;;;10.00;99.90;;;;;;5056493;28;20190;-64
2022/11/25 09:40:17;;;;;;;6.40;2.93;;;10.10;99.90;;;;;;5065423;28;20199;-64
2022/11/25 09:49:11;;;;;;;4.97;2.60;;;10.30;99.90;;;;;;5054485;28;20209;-66
2022/11/25 09:51:46;;;;;;;4.23;2.53;;;10.20;99.90;;;;;;5062793;28;20196;-64
2022/11/25 09:54:16;;;;;;;5.33;2.90;;;10.20;99.90;;;;;;5067936;28;20641;-65
2022/11/25 09:56:49;;;;;;;2.63;2.30;;;10.30;99.90;;;;;;5068577;28;20225;-65
2022/11/25 09:59:18;;;;;;;6.65;3.22;;;10.30;99.90;;;;;;5068536;28;20191;-65
2022/11/25 10:01:58;;;;;;;7.97;3.10;;;10.30;99.90;;;;;;5060348;28;20209;-65
2022/11/25 10:04:30;;;;;;;4.95;2.90;;;10.30;99.90;;;;;;5051524;28;20255;-64
2022/11/25 10:07:02;;;;;;;7.40;2.55;;;10.40;99.90;;;;;;5066358;28;20218;-64
2022/11/25 10:09:32;;;;;;;4.43;1.95;;;10.40;99.90;;;;;;5077216;28;20577;-64
2022/11/25 10:12:22;;;;;;;6.22;4.30;;;10.50;99.90;;;;;;5061504;28;20182;-64
2022/11/25 10:14:55;;;;;;;5.75;2.53;;;10.50;99.90;;;;;;5070183;28;20197;-64
2022/11/25 10:17:33;;;;;;;9.23;3.00;;;10.50;99.90;;;;;;5064902;28;20586;-64
2022/11/25 10:20:06;;;;;;;6.32;3.65;;;10.50;99.90;;;;;;5058021;28;20181;-64
2022/11/25 10:22:40;;;;;;;3.85;2.78;;;10.60;99.90;;;;;;5074605;28;20544;-65
2022/11/25 10:25:19;;;;;;;2.92;2.05;;;10.60;99.90;;;;;;5063174;28;20182;-64
2022/11/25 10:28:17;;;;;;;3.55;2.13;;;10.60;99.90;;;;;;5051131;28;20184;-63
2022/11/25 10:30:53;;;;;;;4.05;2.38;;;10.60;99.90;;;;;;5055798;28;20181;-64
2022/11/25 10:33:24;;;;;;;3.60;2.05;;;10.80;99.90;;;;;;5052202;28;20208;-64
2022/11/25 10:35:55;;;;;;;3.95;1.80;;;10.90;99.90;;;;;;5046701;28;20213;-64
2022/11/25 10:38:40;;;;;;;4.80;1.70;;;10.80;99.90;;;;;;5061375;28;20184;-63
2022/11/25 10:41:05;;;;;;;6.70;2.53;;;10.70;99.90;;;;;;5049266;28;20170;-64
2022/11/25 10:43:32;;;;;;;1.92;1.83;;;10.80;99.90;;;;;;5048201;28;20185;-64
2022/11/25 10:46:27;;;;;;;4.38;2.22;;;10.80;99.90;;;;;;5053052;28;20205;-64
2022/11/25 10:49:04;;;;;;;6.80;2.22;;;11.00;99.90;;;;;;5058787;28;20279;-66
2022/11/25 10:51:37;;;;;;;2.88;1.92;;;11.00;99.90;;;;;;5065720;28;20192;-63
2022/11/25 10:54:22;;;;;;;2.90;1.90;;;11.20;99.90;;;;;;5053849;28;20181;-63
2022/11/25 10:56:52;;;;;;;10.77;2.13;;;11.30;99.90;;;;;;5083590;28;20237;-62
2022/11/25 10:59:20;;;;;;;2.58;2.38;;;11.20;99.90;;;;;;5066736;28;20246;-63
2022/11/25 11:01:46;;;;;;;7.75;2.33;;;11.10;99.90;;;;;;5063026;28;20647;-63
2022/11/25 11:04:13;;;;;;;5.70;1.95;;;11.20;99.90;;;;;;5060309;28;20182;-65
2022/11/25 11:06:44;;;;;;;4.75;2.50;;;11.30;99.90;;;;;;5069632;28;20191;-63
2022/11/25 11:09:30;;;;;;;5.43;1.48;;;11.20;99.90;;;;;;5051712;28;20810;-63
2022/11/25 11:11:56;;;;;;;4.15;2.10;;;11.20;99.90;;;;;;5055518;28;20502;-65
2022/11/25 11:14:22;;;;;;;9.30;3.05;;;11.20;99.90;;;;;;5064577;28;20676;-65
2022/11/25 11:16:53;;;;;;;6.63;3.10;;;11.30;99.90;;;;;;5058854;28;20287;-65
2022/11/25 11:19:25;;;;;;;3.45;1.50;;;11.40;99.90;;;;;;5048168;28;20175;-65
2022/11/25 11:21:52;;;;;;;4.32;2.25;;;11.40;99.90;;;;;;5070858;28;20178;-65
2022/11/25 11:24:36;;;;;;;5.97;2.22;;;11.30;99.90;;;;;;5072029;28;21046;-66
2022/11/25 11:27:06;;;;;;;2.78;1.50;;;11.40;99.90;;;;;;5069287;28;20172;-67
2022/11/25 11:29:32;;;;;;;8.20;2.03;;;11.40;99.90;;;;;;5055675;28;20186;-67
2022/11/25 11:32:04;;;;;;;4.18;1.90;;;11.50;99.90;;;;;;5057519;28;20182;-65
2022/11/25 11:34:42;;;;;;;6.55;1.88;;;11.40;99.90;;;;;;5070744;28;20169;-66
2022/11/25 11:37:31;;;;;;;2.92;1.67;;;11.60;99.90;;;;;;5058330;28;20600;-66
2022/11/25 11:40:24;;;;;;;3.08;1.80;;;11.70;99.90;;;;;;5062536;28;20174;-66
2022/11/25 11:43:05;;;;;;;8.48;2.53;;;11.80;99.90;;;;;;5052618;28;20193;-66
2022/11/25 11:45:56;;;;;;;5.45;2.00;;;11.80;99.90;;;;;;5061425;28;20185;-66
2022/11/25 11:48:31;;;;;;;6.03;2.45;;;11.90;99.90;;;;;;5067107;28;20714;-66
2022/11/25 11:51:15;;;;;;;3.83;2.38;;;11.90;99.90;;;;;;5068714;28;20566;-67
2022/11/25 11:54:11;;;;;;;6.80;2.30;;;12.00;99.90;;;;;;5072569;28;20204;-65
2022/11/25 11:56:53;;;;;;;3.38;2.60;;;12.00;99.90;;;;;;5054824;28;20705;-64
2022/11/25 11:59:34;;;;;;;5.55;2.17;;;12.00;99.90;;;;;;5063343;28;20221;-63
2022/11/25 12:02:17;;;;;;;3.13;2.17;;;12.00;99.90;;;;;;5054255;28;20189;-63
2022/11/25 12:04:52;;;;;;;2.42;1.80;;;12.10;99.90;;;;;;5056064;28;20209;-62
2022/11/25 12:07:56;;;;;;;3.35;1.52;;;12.10;99.90;;;;;;5063564;28;20204;-62
2022/11/25 12:10:41;;;;;;;7.13;2.72;;;12.10;99.90;;;;;;5054993;28;20216;-62
2022/11/25 12:13:21;;;;;;;3.38;1.80;;;12.20;99.90;;;;;;5054153;28;20277;-63
2022/11/25 12:15:50;;;;;;;7.93;3.30;;;12.20;99.90;;;;;;5054547;28;20598;-63
2022/11/25 12:18:35;;;;;;;5.13;1.85;;;12.20;99.90;;;;;;5059953;28;20190;-65
2022/11/25 12:21:09;;;;;;;11.00;2.30;;;12.10;99.90;;;;;;5057003;28;20193;-63
2022/11/25 12:23:57;;;;;;;3.50;1.67;;;12.10;99.90;;;;;;5060098;28;20184;-63
2022/11/25 12:26:52;;;;;;;8.23;2.28;;;12.10;99.90;;;;;;5060459;28;20227;-64
2022/11/25 12:29:49;;;;;;;9.90;3.13;;;12.10;99.90;;;;;;5054119;28;20656;-64
2022/11/25 12:32:18;;;;;;;7.75;3.25;;;12.20;99.90;;;;;;5054910;28;20539;-64
2022/11/25 12:34:57;;;;;;;3.60;2.03;;;12.30;99.90;;;;;;5064206;28;20208;-64
2022/11/25 12:37:34;;;;;;;5.07;2.08;;;12.30;99.90;;;;;;5056383;28;20258;-65
2022/11/25 12:40:07;;;;;;;12.70;2.40;;;12.20;99.90;;;;;;5053437;28;20514;-65
2022/11/25 12:42:38;;;;;;;8.85;2.80;;;12.30;99.90;;;;;;5056242;28;20720;-63
2022/11/25 12:45:16;;;;;;;5.95;2.33;;;12.30;99.90;;;;;;5054961;28;20538;-64
2022/11/25 12:47:43;;;;;;;9.10;3.35;;;12.30;99.90;;;;;;5053335;28;20201;-63
2022/11/25 12:50:16;;;;;;;5.10;2.45;;;12.20;99.90;;;;;;5054235;28;20186;-65
2022/11/25 12:52:48;;;;;;;6.05;2.35;;;12.30;99.90;;;;;;5066081;28;20176;-64
2022/11/25 12:55:26;;;;;;;6.05;2.92;;;12.40;99.90;;;;;;5054079;28;20247;-64
2022/11/25 12:58:19;;;;;;;8.75;2.78;;;12.50;99.90;;;;;;5053902;28;20188;-64
2022/11/25 13:01:02;;;;;;;5.07;2.55;;;12.50;99.90;;;;;;5053750;28;20201;-64
2022/11/25 13:03:46;;;;;;;4.70;2.42;;;12.50;99.90;;;;;;5053998;28;20186;-65
2022/11/25 13:06:27;;;;;;;8.18;2.50;;;12.40;99.90;;;;;;5053775;28;20190;-64
2022/11/25 13:09:08;;;;;;;4.78;2.40;;;12.40;99.90;;;;;;5060444;28;20178;-64
2022/11/25 13:12:14;;;;;;;7.95;2.63;;;12.40;99.90;;;;;;5053258;28;20221;-64
2022/11/25 13:15:17;;;;;;;8.27;3.08;;;12.40;99.90;;;;;;5053198;28;20198;-64
2022/11/25 13:17:45;;;;;;;6.15;2.28;;;12.40;99.90;;;;;;5065738;28;20185;-64
2022/11/25 13:20:26;;;;;;;8.40;3.17;;;12.50;99.90;;;;;;5053677;28;20178;-64